Time;durP1;ratioP1;P1;durP2;ratioP2;P2;SDS_P1;SDS_P2;PMS_P1;PMS_P2;Temp;Humidity;BMP_temperature;BMP_pressure;BME280_temperature;BME280_humidity;BME280_pressure;Samples;Min_cycle;Max_cycle;Signal;HPM_P1;HPM_P2
2022/03/18 00:02:24;;;;;;;22.60;12.25;;;;;;;;;;5022610;28;20058;-66
2022/03/18 00:04:51;;;;;;;23.92;12.50;;;;;;;;;;5015075;28;20034;-66
2022/03/18 00:07:20;;;;;;;25.60;12.75;;;;;;;;;;5024537;28;20049;-66
2022/03/18 00:09:45;;;;;;;23.80;12.40;;;;;;;;;;5023911;28;20032;-66
2022/03/18 00:12:11;;;;;;;23.17;12.68;;;;;;;;;;5023053;28;20017;-66
2022/03/18 00:14:41;;;;;;;23.98;12.38;;;;;;;;;;5015643;28;20482;-66
2022/03/18 00:17:11;;;;;;;25.35;12.95;;;;;;;;;;5025468;28;20042;-66
2022/03/18 00:19:38;;;;;;;23.60;12.95;;;;;;;;;;5021617;28;20042;-66
2022/03/18 00:22:05;;;;;;;23.70;13.52;;;;;;;;;;5021949;28;20467;-66
2022/03/18 00:24:32;;;;;;;24.23;14.20;;;;;;;;;;5028702;28;20112;-66
2022/03/18 00:27:00;;;;;;;24.55;13.25;;;;;;;;;;5026476;28;20064;-66
2022/03/18 00:29:26;;;;;;;23.00;12.52;;;;;;;;;;5013084;28;20021;-66
2022/03/18 00:31:53;;;;;;;25.52;12.77;;;;;;;;;;5024558;28;20041;-66
2022/03/18 00:34:19;;;;;;;20.63;13.10;;;;;;;;;;5024070;28;20041;-66
2022/03/18 00:36:46;;;;;;;24.77;12.50;;;;;;;;;;5028611;28;20025;-66
2022/03/18 00:39:12;;;;;;;16.38;11.63;;;;;;;;;;5017097;28;20068;-66
2022/03/18 00:41:37;;;;;;;26.00;13.18;;;;;;;;;;5012389;28;20033;-66
2022/03/18 00:44:03;;;;;;;26.55;13.07;;;;;;;;;;5018639;28;20037;-66
2022/03/18 00:46:30;;;;;;;20.10;12.70;;;;;;;;;;5016536;28;20033;-66
2022/03/18 00:54:25;;;;;;;26.77;13.88;;;;;;;;;;5023969;28;20041;-66
2022/03/18 00:56:50;;;;;;;25.15;13.27;;;;;;;;;;5020046;28;20057;-66
2022/03/18 00:59:16;;;;;;;20.83;12.02;;;;;;;;;;5018267;28;20476;-66
2022/03/18 01:01:42;;;;;;;32.03;13.35;;;;;;;;;;5024146;28;20057;-66
2022/03/18 01:04:08;;;;;;;18.92;12.32;;;;;;;;;;5019542;28;20021;-66
2022/03/18 01:06:35;;;;;;;25.10;13.27;;;;;;;;;;5026660;28;20115;-65
2022/03/18 01:09:04;;;;;;;24.05;12.40;;;;;;;;;;5020760;28;20024;-66
2022/03/18 01:11:31;;;;;;;21.02;12.18;;;;;;;;;;5017286;28;20037;-66
2022/03/18 01:13:58;;;;;;;31.00;14.18;;;;;;;;;;5011087;28;20045;-66
2022/03/18 01:16:24;;;;;;;25.65;13.55;;;;;;;;;;5015677;28;20038;-65
2022/03/18 01:18:49;;;;;;;25.48;12.57;;;;;;;;;;5018992;28;20407;-66
2022/03/18 01:21:15;;;;;;;22.02;12.43;;;;;;;;;;5049627;28;20029;-66
2022/03/18 01:23:41;;;;;;;16.85;11.38;;;;;;;;;;5018263;28;20033;-66
2022/03/18 01:26:07;;;;;;;22.23;12.45;;;;;;;;;;5018494;28;20029;-66
2022/03/18 01:28:33;;;;;;;22.95;12.45;;;;;;;;;;5019991;28;20036;-66
2022/03/18 01:30:59;;;;;;;25.60;12.77;;;;;;;;;;5021186;28;20034;-66
2022/03/18 01:33:25;;;;;;;23.98;11.55;;;;;;;;;;5022426;28;20030;-66
2022/03/18 01:35:50;;;;;;;22.17;11.57;;;;;;;;;;5014549;28;20052;-66
2022/03/18 01:38:16;;;;;;;19.00;12.18;;;;;;;;;;5017042;28;20136;-66
2022/03/18 01:40:42;;;;;;;14.52;10.85;;;;;;;;;;5023880;28;20042;-66
2022/03/18 01:43:09;;;;;;;18.25;11.73;;;;;;;;;;5027567;28;20122;-66
2022/03/18 01:45:35;;;;;;;18.92;11.23;;;;;;;;;;5025542;28;20027;-66
2022/03/18 01:48:02;;;;;;;22.35;12.00;;;;;;;;;;5018109;28;20036;-66
2022/03/18 01:50:30;;;;;;;18.58;10.88;;;;;;;;;;5020446;28;20040;-67
2022/03/18 01:52:56;;;;;;;23.58;11.77;;;;;;;;;;5023764;28;20033;-66
2022/03/18 01:55:23;;;;;;;17.10;11.20;;;;;;;;;;5014050;28;20087;-66
2022/03/18 01:57:50;;;;;;;15.63;11.10;;;;;;;;;;5023886;28;20029;-66
2022/03/18 02:00:18;;;;;;;16.17;10.38;;;;;;;;;;5017751;28;20026;-65
2022/03/18 02:02:45;;;;;;;19.15;10.88;;;;;;;;;;5022467;28;20483;-66
2022/03/18 02:05:11;;;;;;;19.88;10.45;;;;;;;;;;5017103;28;20037;-66
2022/03/18 02:07:37;;;;;;;17.08;10.25;;;;;;;;;;5028098;28;20036;-66
2022/03/18 02:10:05;;;;;;;17.75;9.50;;;;;;;;;;5031028;28;20032;-66
2022/03/18 02:12:31;;;;;;;17.75;10.20;;;;;;;;;;5021337;28;20478;-66
2022/03/18 02:14:58;;;;;;;21.35;10.20;;;;;;;;;;5016724;28;20037;-66
2022/03/18 02:17:24;;;;;;;17.83;10.27;;;;;;;;;;5014453;28;20080;-66
2022/03/18 02:19:50;;;;;;;16.88;11.25;;;;;;;;;;5019854;28;20667;-66
2022/03/18 02:22:19;;;;;;;17.15;10.23;;;;;;;;;;5018139;28;20034;-65
2022/03/18 02:24:46;;;;;;;21.05;11.55;;;;;;;;;;5029252;28;20547;-66
2022/03/18 02:27:13;;;;;;;16.25;11.10;;;;;;;;;;5021963;28;20087;-66
2022/03/18 02:29:39;;;;;;;19.25;10.75;;;;;;;;;;5027331;28;20032;-66
2022/03/18 02:32:07;;;;;;;18.92;11.77;;;;;;;;;;5028827;28;20552;-66
2022/03/18 02:34:33;;;;;;;21.00;10.85;;;;;;;;;;5021179;28;20099;-66
2022/03/18 02:36:59;;;;;;;26.85;12.45;;;;;;;;;;5032051;28;20087;-66
2022/03/18 02:39:25;;;;;;;22.23;11.13;;;;;;;;;;5027748;28;20486;-66
2022/03/18 02:41:51;;;;;;;18.95;10.98;;;;;;;;;;5019483;28;20076;-66
2022/03/18 02:44:17;;;;;;;17.42;10.77;;;;;;;;;;5021748;28;20034;-66
2022/03/18 02:46:43;;;;;;;17.02;11.45;;;;;;;;;;5020964;28;20030;-66
2022/03/18 02:49:08;;;;;;;22.20;12.10;;;;;;;;;;5018318;28;20451;-66
2022/03/18 02:51:37;;;;;;;19.83;11.77;;;;;;;;;;5023039;28;20035;-66
2022/03/18 02:54:07;;;;;;;17.77;11.15;;;;;;;;;;5017335;28;20041;-66
2022/03/18 02:56:34;;;;;;;22.10;10.68;;;;;;;;;;5019180;28;20030;-66
2022/03/18 02:59:01;;;;;;;23.00;11.10;;;;;;;;;;5024332;28;20079;-66
2022/03/18 03:01:28;;;;;;;23.27;11.75;;;;;;;;;;5031364;28;20041;-66
2022/03/18 03:03:58;;;;;;;19.77;10.38;;;;;;;;;;5024834;28;20112;-66
2022/03/18 03:09:08;;;;;;;25.33;11.93;;;;;;;;;;5021402;28;20079;-66
2022/03/18 03:11:34;;;;;;;18.42;11.93;;;;;;;;;;5021232;28;20025;-66
2022/03/18 03:14:01;;;;;;;23.40;11.35;;;;;;;;;;5025331;28;20514;-66
2022/03/18 03:16:28;;;;;;;23.25;11.88;;;;;;;;;;5022738;28;20034;-66
2022/03/18 03:18:54;;;;;;;22.17;12.02;;;;;;;;;;5034272;28;20029;-65
2022/03/18 03:21:20;;;;;;;24.35;10.90;;;;;;;;;;5022870;28;20047;-66
2022/03/18 03:23:46;;;;;;;22.80;11.13;;;;;;;;;;5018326;28;20026;-66
2022/03/18 03:26:12;;;;;;;25.30;11.18;;;;;;;;;;5018531;28;20030;-66
2022/03/18 03:28:38;;;;;;;19.15;10.95;;;;;;;;;;5022040;28;20086;-66
2022/03/18 03:31:04;;;;;;;15.68;10.68;;;;;;;;;;5022904;28;20065;-66
2022/03/18 03:33:31;;;;;;;19.05;12.00;;;;;;;;;;5025393;28;20029;-66
2022/03/18 03:35:57;;;;;;;19.52;11.80;;;;;;;;;;5019066;28;20409;-66
2022/03/18 03:38:23;;;;;;;24.25;12.20;;;;;;;;;;5017381;28;20038;-66
2022/03/18 03:40:49;;;;;;;17.85;10.80;;;;;;;;;;5025398;28;20029;-66
2022/03/18 03:43:15;;;;;;;17.48;11.38;;;;;;;;;;5033092;28;20032;-66
2022/03/18 03:45:41;;;;;;;31.33;13.20;;;;;;;;;;5026218;28;20112;-66
2022/03/18 03:48:07;;;;;;;21.90;11.85;;;;;;;;;;5023072;28;20067;-66
2022/03/18 03:50:34;;;;;;;20.67;11.80;;;;;;;;;;5017839;28;20501;-66
2022/03/18 03:53:01;;;;;;;25.80;11.90;;;;;;;;;;5017534;28;20514;-66
2022/03/18 03:55:27;;;;;;;20.52;11.63;;;;;;;;;;5019920;28;20453;-66
2022/03/18 03:57:53;;;;;;;25.52;12.13;;;;;;;;;;5024876;28;20125;-66
2022/03/18 04:00:19;;;;;;;23.20;12.10;;;;;;;;;;5020688;28;20033;-66
2022/03/18 04:02:48;;;;;;;18.75;11.85;;;;;;;;;;5019043;28;20479;-66
2022/03/18 04:05:14;;;;;;;20.33;12.23;;;;;;;;;;5024075;28;20033;-66
2022/03/18 04:07:41;;;;;;;22.50;12.10;;;;;;;;;;5017299;28;20032;-66
2022/03/18 04:10:09;;;;;;;24.23;11.85;;;;;;;;;;5014611;28;20041;-66
2022/03/18 04:12:36;;;;;;;20.20;11.48;;;;;;;;;;5013748;28;20053;-66
2022/03/18 04:15:24;;;;;;;25.10;11.95;;;;;;;;;;5016617;28;20036;-67
2022/03/18 04:18:09;;;;;;;18.35;10.75;;;;;;;;;;5018962;28;20037;-66
2022/03/18 04:20:55;;;;;;;25.20;11.15;;;;;;;;;;5012765;28;20052;-66
2022/03/18 04:23:43;;;;;;;15.27;10.38;;;;;;;;;;5012563;28;20036;-66
2022/03/18 04:26:29;;;;;;;22.50;10.95;;;;;;;;;;5012567;28;20037;-67
2022/03/18 04:29:14;;;;;;;24.08;11.57;;;;;;;;;;5018435;28;20042;-66
2022/03/18 04:32:00;;;;;;;28.70;11.05;;;;;;;;;;5017351;28;20037;-66
2022/03/18 04:34:45;;;;;;;24.23;10.13;;;;;;;;;;5026780;28;20095;-66
2022/03/18 04:37:29;;;;;;;16.42;9.95;;;;;;;;;;5022183;28;20045;-66
2022/03/18 04:40:14;;;;;;;21.88;11.02;;;;;;;;;;5025036;28;20087;-65
2022/03/18 04:42:58;;;;;;;15.00;10.27;;;;;;;;;;5024165;28;20087;-66
2022/03/18 04:45:45;;;;;;;18.05;10.77;;;;;;;;;;5028414;28;20037;-66
2022/03/18 04:48:30;;;;;;;20.90;11.13;;;;;;;;;;5018974;28;20040;-66
2022/03/18 04:51:15;;;;;;;21.75;11.25;;;;;;;;;;5022189;28;22426;-66
2022/03/18 04:54:01;;;;;;;20.45;11.00;;;;;;;;;;5033062;28;20037;-67
2022/03/18 04:59:56;;;;;;;21.13;11.45;;;;;;;;;;5016231;28;20163;-67
2022/03/18 05:02:43;;;;;;;20.17;10.40;;;;;;;;;;5013928;28;20044;-66
2022/03/18 05:05:27;;;;;;;16.58;10.48;;;;;;;;;;5016803;28;20079;-66
2022/03/18 05:08:11;;;;;;;24.00;11.20;;;;;;;;;;5014576;28;20060;-66
2022/03/18 05:10:57;;;;;;;18.85;11.57;;;;;;;;;;5019833;28;20065;-66
2022/03/18 05:13:42;;;;;;;19.55;10.80;;;;;;;;;;5020120;28;20036;-66
2022/03/18 05:16:26;;;;;;;21.48;10.93;;;;;;;;;;5022119;28;20029;-66
2022/03/18 05:19:10;;;;;;;22.67;10.20;;;;;;;;;;5022602;28;20493;-66
2022/03/18 05:21:55;;;;;;;23.67;11.73;;;;;;;;;;5021387;28;20063;-66
2022/03/18 05:24:39;;;;;;;20.33;12.20;;;;;;;;;;5027419;28;20043;-66
2022/03/18 05:27:22;;;;;;;24.02;11.32;;;;;;;;;;5025405;28;20056;-66
2022/03/18 05:30:10;;;;;;;19.20;10.40;;;;;;;;;;5019904;28;20931;-66
2022/03/18 05:32:54;;;;;;;18.00;11.05;;;;;;;;;;5012698;28;20183;-66
2022/03/18 05:35:38;;;;;;;19.35;10.90;;;;;;;;;;5011852;28;20145;-66
2022/03/18 05:38:22;;;;;;;25.13;11.77;;;;;;;;;;5022109;28;20049;-66
2022/03/18 05:41:07;;;;;;;23.02;11.88;;;;;;;;;;5022689;28;20566;-66
2022/03/18 05:43:51;;;;;;;26.65;11.63;;;;;;;;;;5027596;28;20687;-66
2022/03/18 05:46:35;;;;;;;19.38;11.68;;;;;;;;;;5015290;28;20037;-66
2022/03/18 05:49:19;;;;;;;19.15;11.75;;;;;;;;;;5020935;28;20825;-66
2022/03/18 05:52:03;;;;;;;18.42;11.75;;;;;;;;;;5022465;28;20078;-66
2022/03/18 05:54:48;;;;;;;25.48;12.15;;;;;;;;;;5017852;28;20037;-66
2022/03/18 05:57:32;;;;;;;19.65;11.35;;;;;;;;;;5029440;28;20048;-66
2022/03/18 06:00:16;;;;;;;25.75;11.80;;;;;;;;;;5023770;28;20769;-66
2022/03/18 06:03:00;;;;;;;24.23;11.20;;;;;;;;;;5020506;28;20527;-66
2022/03/18 06:05:45;;;;;;;20.75;11.80;;;;;;;;;;5021474;28;20574;-66
2022/03/18 06:11:51;;;;;;;21.33;12.23;;;;;;;;;;5012636;28;20391;-66
2022/03/18 06:14:35;;;;;;;19.25;11.18;;;;;;;;;;5012422;28;20056;-66
2022/03/18 06:17:20;;;;;;;20.98;11.35;;;;;;;;;;5016902;28;20049;-66
2022/03/18 06:20:05;;;;;;;20.23;10.80;;;;;;;;;;5013473;28;20399;-66
2022/03/18 06:22:49;;;;;;;23.08;11.05;;;;;;;;;;5023162;28;20048;-66
2022/03/18 06:25:33;;;;;;;17.27;10.88;;;;;;;;;;5017830;28;20037;-66
2022/03/18 06:28:17;;;;;;;22.38;14.30;;;;;;;;;;5017678;28;20573;-66
2022/03/18 06:31:02;;;;;;;24.35;12.30;;;;;;;;;;5018881;28;20037;-66
2022/03/18 06:33:46;;;;;;;19.90;11.40;;;;;;;;;;5023767;28;20040;-66
2022/03/18 06:36:31;;;;;;;17.25;10.98;;;;;;;;;;5017511;28;20096;-66
2022/03/18 06:39:16;;;;;;;22.15;11.60;;;;;;;;;;5014037;28;20100;-66
2022/03/18 06:42:01;;;;;;;25.58;11.55;;;;;;;;;;5011476;28;20036;-66
2022/03/18 06:44:45;;;;;;;22.88;11.35;;;;;;;;;;5016878;28;20434;-66
2022/03/18 06:47:29;;;;;;;19.35;11.00;;;;;;;;;;5012165;28;20068;-66
2022/03/18 06:50:13;;;;;;;27.15;12.27;;;;;;;;;;5020963;28;20148;-65
2022/03/18 06:52:57;;;;;;;27.25;12.25;;;;;;;;;;5015460;28;20045;-66
2022/03/18 06:55:41;;;;;;;24.05;12.57;;;;;;;;;;5014422;28;20045;-66
2022/03/18 06:58:27;;;;;;;20.50;11.93;;;;;;;;;;5019343;28;20444;-66
2022/03/18 07:01:12;;;;;;;17.75;11.18;;;;;;;;;;5013782;28;20064;-65
2022/03/18 07:03:56;;;;;;;20.45;12.32;;;;;;;;;;5017205;28;20029;-65
2022/03/18 07:06:22;;;;;;;19.33;11.63;;;;;;;;;;5017641;28;20036;-65
2022/03/18 07:08:47;;;;;;;17.50;11.43;;;;;;;;;;5013109;28;20022;-65
2022/03/18 07:11:13;;;;;;;19.50;11.07;;;;;;;;;;5010318;28;20033;-65
2022/03/18 07:13:42;;;;;;;32.28;12.27;;;;;;;;;;5021097;28;20025;-65
2022/03/18 07:18:53;;;;;;;20.83;11.68;;;;;;;;;;5025976;28;20029;-65
2022/03/18 07:21:19;;;;;;;25.08;12.60;;;;;;;;;;5023302;28;20022;-65
2022/03/18 07:23:44;;;;;;;20.30;12.00;;;;;;;;;;5018325;28;20513;-65
2022/03/18 07:26:10;;;;;;;25.58;11.02;;;;;;;;;;5017954;28;20119;-65
2022/03/18 07:28:37;;;;;;;27.70;12.27;;;;;;;;;;5020444;28;20042;-65
2022/03/18 07:31:02;;;;;;;17.17;11.48;;;;;;;;;;5020200;28;20091;-65
2022/03/18 07:33:28;;;;;;;27.25;11.93;;;;;;;;;;5013694;28;20472;-65
2022/03/18 07:35:54;;;;;;;28.88;11.57;;;;;;;;;;5016060;28;20510;-65
2022/03/18 07:38:20;;;;;;;23.05;11.52;;;;;;;;;;5014051;28;20117;-65
2022/03/18 07:40:46;;;;;;;17.60;10.52;;;;;;;;;;5017593;28;20100;-67
2022/03/18 07:43:12;;;;;;;28.00;12.15;;;;;;;;;;5021068;28;20479;-65
2022/03/18 07:45:38;;;;;;;22.08;11.10;;;;;;;;;;5018647;28;20566;-65
2022/03/18 07:48:07;;;;;;;22.23;12.32;;;;;;;;;;5017525;28;20030;-65
2022/03/18 07:50:35;;;;;;;23.40;12.40;;;;;;;;;;5022460;28;20037;-65
2022/03/18 07:53:03;;;;;;;24.25;12.80;;;;;;;;;;5015962;28;20438;-65
2022/03/18 07:55:30;;;;;;;23.25;11.52;;;;;;;;;;5027933;28;20025;-65
2022/03/18 07:57:58;;;;;;;27.73;13.40;;;;;;;;;;5028580;28;20056;-65
2022/03/18 08:00:24;;;;;;;29.63;15.00;;;;;;;;;;5020311;28;20052;-65
2022/03/18 08:02:52;;;;;;;24.70;13.73;;;;;;;;;;5024045;28;20026;-65
2022/03/18 08:05:19;;;;;;;25.02;14.30;;;;;;;;;;5027133;28;20032;-65
2022/03/18 08:07:46;;;;;;;25.42;14.95;;;;;;;;;;5015548;28;20459;-65
2022/03/18 08:10:13;;;;;;;29.63;14.90;;;;;;;;;;5024063;28;20026;-65
2022/03/18 08:12:40;;;;;;;27.15;14.57;;;;;;;;;;5014475;28;20030;-65
2022/03/18 08:15:11;;;;;;;28.35;14.45;;;;;;;;;;5014013;28;20502;-66
2022/03/18 08:17:41;;;;;;;21.15;15.18;;;;;;;;;;5019049;28;20125;-65
2022/03/18 08:20:08;;;;;;;19.80;13.45;;;;;;;;;;5017690;28;20053;-65
2022/03/18 08:22:35;;;;;;;34.13;13.95;;;;;;;;;;5022751;28;20141;-65
2022/03/18 08:25:01;;;;;;;25.20;14.05;;;;;;;;;;5017833;28;20033;-65
2022/03/18 08:27:27;;;;;;;26.27;13.00;;;;;;;;;;5021091;28;20087;-65
2022/03/18 08:29:57;;;;;;;27.65;14.00;;;;;;;;;;5018577;28;20516;-65
2022/03/18 08:32:27;;;;;;;25.45;13.98;;;;;;;;;;5023821;28;20044;-65
2022/03/18 08:34:54;;;;;;;24.95;13.50;;;;;;;;;;5017048;28;20125;-65
2022/03/18 08:37:56;;;;;;;32.80;13.45;;;;;;;;;;5020419;28;20459;-65
2022/03/18 08:40:05;;;;;;;27.25;13.30;;;;;;;;;;5017702;28;20061;-65
2022/03/18 08:42:32;;;;;;;26.25;13.38;;;;;;;;;;5017179;28;20026;-65
2022/03/18 08:44:58;;;;;;;29.85;13.85;;;;;;;;;;5018396;28;20025;-65
2022/03/18 08:47:24;;;;;;;22.77;12.38;;;;;;;;;;5016477;28;20116;-65
2022/03/18 08:49:50;;;;;;;20.35;12.55;;;;;;;;;;5016382;28;20030;-66
2022/03/18 08:52:16;;;;;;;24.95;13.60;;;;;;;;;;5028299;28;20083;-65
2022/03/18 08:54:42;;;;;;;26.33;13.90;;;;;;;;;;5025991;28;20028;-65
2022/03/18 08:57:09;;;;;;;22.65;12.52;;;;;;;;;;5022349;28;20128;-66
2022/03/18 08:59:34;;;;;;;23.45;13.15;;;;;;;;;;5023195;28;20044;-66
2022/03/18 09:02:00;;;;;;;20.20;12.38;;;;;;;;;;5019576;28;20037;-66
2022/03/18 09:04:26;;;;;;;29.50;12.38;;;;;;;;;;5026137;28;20482;-66
2022/03/18 09:06:52;;;;;;;23.70;13.48;;;;;;;;;;5012506;28;20033;-65
2022/03/18 09:09:17;;;;;;;20.35;12.15;;;;;;;;;;5016224;28;20398;-65
2022/03/18 09:11:43;;;;;;;22.13;12.55;;;;;;;;;;5021098;28;20034;-64
2022/03/18 09:14:10;;;;;;;23.25;12.50;;;;;;;;;;5015284;28;20490;-65
2022/03/18 09:16:38;;;;;;;18.85;11.25;;;;;;;;;;5015337;28;20108;-65
2022/03/18 09:19:07;;;;;;;22.13;10.98;;;;;;;;;;5017146;28;20036;-65
2022/03/18 09:21:33;;;;;;;16.25;10.57;;;;;;;;;;5019554;28;20026;-65
2022/03/18 09:23:59;;;;;;;21.52;11.90;;;;;;;;;;5015812;28;20036;-65
2022/03/18 09:26:24;;;;;;;30.38;16.00;;;;;;;;;;5019768;28;20034;-65
2022/03/18 09:28:50;;;;;;;35.92;16.35;;;;;;;;;;5015791;28;20104;-65
2022/03/18 09:31:16;;;;;;;40.97;16.08;;;;;;;;;;5017739;28;20483;-65
2022/03/18 09:33:42;;;;;;;37.95;15.52;;;;;;;;;;5021898;28;20025;-65
2022/03/18 09:36:10;;;;;;;33.60;15.32;;;;;;;;;;5018380;28;20056;-65
2022/03/18 09:38:37;;;;;;;41.45;15.73;;;;;;;;;;5011670;28;20095;-65
2022/03/18 09:41:06;;;;;;;25.00;14.30;;;;;;;;;;5016529;28;20467;-65
2022/03/18 09:43:33;;;;;;;35.67;16.13;;;;;;;;;;5014093;28;20040;-65
2022/03/18 09:45:59;;;;;;;23.15;14.55;;;;;;;;;;5026693;28;20029;-65
2022/03/18 09:48:26;;;;;;;31.55;14.15;;;;;;;;;;5020610;28;20037;-64
2022/03/18 09:50:53;;;;;;;33.08;14.90;;;;;;;;;;5016302;28;20061;-65
2022/03/18 09:53:18;;;;;;;32.33;15.43;;;;;;;;;;5020047;28;20092;-65
2022/03/18 09:55:44;;;;;;;35.83;14.60;;;;;;;;;;5017702;28;20026;-65
2022/03/18 09:58:11;;;;;;;27.08;13.68;;;;;;;;;;5023727;28;20041;-65
2022/03/18 10:00:37;;;;;;;24.33;11.35;;;;;;;;;;5022096;28;20037;-64
2022/03/18 10:03:16;;;;;;;21.90;9.75;;;;;;;;;;5016795;28;20052;-65
2022/03/18 10:05:49;;;;;;;22.20;9.05;;;;;;;;;;5022189;28;20030;-65
2022/03/18 10:08:17;;;;;;;23.80;10.15;;;;;;;;;;5011457;28;20034;-65
2022/03/18 10:10:47;;;;;;;32.17;14.25;;;;;;;;;;5021420;28;20414;-65
2022/03/18 10:13:15;;;;;;;46.05;15.05;;;;;;;;;;5019468;28;20025;-64
2022/03/18 10:15:41;;;;;;;32.22;14.25;;;;;;;;;;5016929;28;20422;-64
2022/03/18 10:18:10;;;;;;;54.88;16.67;;;;;;;;;;5022320;28;20061;-65
2022/03/18 10:20:48;;;;;;;37.40;16.88;;;;;;;;;;5022396;28;20038;-65
2022/03/18 10:23:16;;;;;;;44.20;18.25;;;;;;;;;;5016564;28;20803;-65
2022/03/18 10:25:50;;;;;;;46.17;21.65;;;;;;;;;;5021575;28;20076;-65
2022/03/18 10:28:40;;;;;;;33.50;19.42;;;;;;;;;;5022820;28;20022;-65
2022/03/18 10:31:11;;;;;;;33.45;19.77;;;;;;;;;;5016803;28;20125;-65
2022/03/18 10:37:04;;;;;;;36.95;19.15;;;;;;;;;;5016273;28;20045;-64
2022/03/18 10:39:31;;;;;;;34.92;18.58;;;;;;;;;;5021291;28;20034;-64
2022/03/18 10:42:00;;;;;;;37.15;18.92;;;;;;;;;;5012746;28;20083;-64
2022/03/18 10:44:28;;;;;;;38.60;18.83;;;;;;;;;;5019792;28;20025;-65
2022/03/18 10:46:56;;;;;;;50.58;20.70;;;;;;;;;;5016906;28;20081;-64
2022/03/18 10:49:23;;;;;;;36.30;20.10;;;;;;;;;;5018962;28;20030;-64
2022/03/18 10:51:52;;;;;;;41.35;20.92;;;;;;;;;;5023035;28;20022;-65
2022/03/18 10:54:25;;;;;;;35.85;19.40;;;;;;;;;;5021636;28;20033;-64
2022/03/18 10:56:59;;;;;;;33.85;18.42;;;;;;;;;;5016850;28;20044;-64
2022/03/18 10:59:27;;;;;;;40.00;17.23;;;;;;;;;;5016807;28;20513;-64
2022/03/18 11:01:57;;;;;;;32.40;18.10;;;;;;;;;;5028345;28;20041;-64
2022/03/18 11:04:24;;;;;;;38.05;18.48;;;;;;;;;;5032116;28;20026;-64
2022/03/18 11:12:31;;;;;;;29.85;17.50;;;;;;;;;;5030930;28;20474;-64
2022/03/18 11:14:58;;;;;;;38.65;18.38;;;;;;;;;;5020312;28;20037;-64
2022/03/18 11:17:24;;;;;;;32.25;17.63;;;;;;;;;;5015797;28;20557;-65
2022/03/18 11:19:53;;;;;;;34.97;18.80;;;;;;;;;;5023917;28;20434;-64
2022/03/18 11:22:22;;;;;;;36.50;17.83;;;;;;;;;;5021949;28;20038;-64
2022/03/18 11:24:51;;;;;;;29.85;17.52;;;;;;;;;;5016719;28;20092;-64
2022/03/18 11:27:17;;;;;;;36.55;19.35;;;;;;;;;;5026030;28;20557;-66
2022/03/18 11:29:43;;;;;;;28.98;19.25;;;;;;;;;;5018505;28;20030;-64
2022/03/18 11:32:09;;;;;;;35.45;19.77;;;;;;;;;;5016249;28;20030;-64
2022/03/18 11:34:50;;;;;;;40.00;18.55;;;;;;;;;;5033184;28;20090;-64
2022/03/18 11:37:17;;;;;;;36.90;18.33;;;;;;;;;;5023979;28;20184;-64
2022/03/18 11:39:42;;;;;;;37.47;17.58;;;;;;;;;;5026756;28;20514;-63
2022/03/18 11:42:09;;;;;;;40.35;18.08;;;;;;;;;;5030606;28;20056;-64
2022/03/18 11:44:43;;;;;;;30.92;17.88;;;;;;;;;;5019976;28;20398;-64
2022/03/18 11:47:20;;;;;;;37.80;18.20;;;;;;;;;;5018927;28;20034;-64
2022/03/18 11:49:47;;;;;;;31.77;16.90;;;;;;;;;;5020831;28;20026;-63
2022/03/18 11:52:13;;;;;;;29.95;16.63;;;;;;;;;;5026956;28;20033;-64
2022/03/18 11:54:58;;;;;;;34.20;15.00;;;;;;;;;;5025004;28;20037;-64
2022/03/18 11:57:31;;;;;;;31.05;15.80;;;;;;;;;;5020304;28;20961;-64
2022/03/18 12:00:00;;;;;;;28.73;14.80;;;;;;;;;;5021199;28;20034;-66
2022/03/18 12:02:34;;;;;;;34.53;15.25;;;;;;;;;;5017868;28;20018;-64
2022/03/18 12:05:00;;;;;;;31.25;14.85;;;;;;;;;;5020868;28;20434;-63
2022/03/18 12:07:32;;;;;;;32.20;15.32;;;;;;;;;;5019686;28;20087;-64
2022/03/18 12:10:05;;;;;;;36.33;15.23;;;;;;;;;;5027146;28;20033;-63
2022/03/18 12:12:42;;;;;;;32.50;13.25;;;;;;;;;;5027195;28;20025;-63
2022/03/18 12:15:17;;;;;;;32.00;13.35;;;;;;;;;;5020163;28;20106;-63
2022/03/18 12:17:46;;;;;;;35.00;12.60;;;;;;;;;;5015014;28;20049;-63
2022/03/18 12:20:17;;;;;;;26.20;11.23;;;;;;;;;;5016021;28;20068;-66
2022/03/18 12:22:44;;;;;;;34.70;12.32;;;;;;;;;;5026148;28;20037;-66
2022/03/18 12:25:12;;;;;;;23.90;11.55;;;;;;;;;;5017663;28;20026;-66
2022/03/18 12:27:39;;;;;;;29.50;12.30;;;;;;;;;;5014248;28;20056;-65
2022/03/18 12:30:16;;;;;;;22.30;10.80;;;;;;;;;;5021714;28;20025;-63
2022/03/18 12:32:58;;;;;;;23.83;10.73;;;;;;;;;;5016219;28;20033;-65
2022/03/18 12:35:26;;;;;;;25.13;10.20;;;;;;;;;;5013156;28;20092;-66
2022/03/18 12:38:13;;;;;;;22.35;11.40;;;;;;;;;;5016281;28;20053;-65
2022/03/18 12:41:00;;;;;;;32.80;10.30;;;;;;;;;;5022838;28;20029;-63
2022/03/18 12:43:31;;;;;;;20.25;10.77;;;;;;;;;;5017203;28;20116;-64
2022/03/18 12:45:59;;;;;;;29.08;11.80;;;;;;;;;;5016677;28;20026;-64
2022/03/18 12:48:24;;;;;;;21.90;11.02;;;;;;;;;;5025306;28;20122;-66
2022/03/18 12:50:53;;;;;;;25.83;9.75;;;;;;;;;;5023967;28;20564;-66
2022/03/18 12:53:27;;;;;;;43.08;11.25;;;;;;;;;;5019182;28;20029;-66
2022/03/18 12:55:58;;;;;;;23.67;9.25;;;;;;;;;;5030861;28;20034;-63
2022/03/18 12:58:26;;;;;;;26.23;10.25;;;;;;;;;;5022536;28;20506;-63
2022/03/18 13:00:55;;;;;;;23.63;9.80;;;;;;;;;;5014862;28;20038;-65
2022/03/18 13:03:29;;;;;;;30.05;10.32;;;;;;;;;;5017105;28;20021;-65
2022/03/18 13:06:05;;;;;;;30.15;10.07;;;;;;;;;;5014669;28;20440;-65
2022/03/18 13:08:34;;;;;;;23.13;9.45;;;;;;;;;;5015329;28;20034;-65
2022/03/18 13:11:04;;;;;;;27.60;10.68;;;;;;;;;;5021600;28;20121;-65
2022/03/18 13:13:30;;;;;;;19.85;9.18;;;;;;;;;;5023097;28;20022;-65
2022/03/18 13:16:02;;;;;;;32.13;10.80;;;;;;;;;;5022029;28;20540;-63
2022/03/18 13:18:31;;;;;;;28.98;10.32;;;;;;;;;;5020840;28;20420;-66
2022/03/18 13:20:58;;;;;;;25.67;9.32;;;;;;;;;;5013855;28;20057;-65
2022/03/18 13:23:24;;;;;;;23.13;10.00;;;;;;;;;;5012621;28;20034;-63
2022/03/18 13:25:50;;;;;;;31.30;10.00;;;;;;;;;;5022474;28;20041;-65
2022/03/18 13:28:16;;;;;;;22.60;9.13;;;;;;;;;;5014236;28;20471;-65
2022/03/18 13:33:44;;;;;;;17.98;9.07;;;;;;;;;;5016872;28;20087;-63
2022/03/18 13:36:28;;;;;;;26.40;9.27;;;;;;;;;;5023347;28;20402;-65
2022/03/18 13:38:58;;;;;;;27.10;11.00;;;;;;;;;;5017908;28;20104;-65
2022/03/18 13:41:25;;;;;;;26.67;10.27;;;;;;;;;;5015625;28;20486;-66
2022/03/18 13:43:57;;;;;;;27.75;10.93;;;;;;;;;;5014814;28;20029;-63
2022/03/18 13:46:27;;;;;;;27.02;10.05;;;;;;;;;;5020042;28;20033;-65
2022/03/18 13:49:07;;;;;;;26.13;10.90;;;;;;;;;;5014869;28;20125;-65
2022/03/18 13:51:47;;;;;;;23.27;10.63;;;;;;;;;;5016793;28;20022;-65
2022/03/18 13:54:21;;;;;;;28.63;10.98;;;;;;;;;;5013772;28;20022;-63
2022/03/18 13:57:03;;;;;;;18.60;9.52;;;;;;;;;;5016100;28;20103;-64
2022/03/18 13:59:30;;;;;;;29.38;10.30;;;;;;;;;;5014275;28;20018;-65
2022/03/18 14:02:07;;;;;;;25.13;10.20;;;;;;;;;;5018335;28;20044;-65
2022/03/18 14:04:43;;;;;;;30.77;10.73;;;;;;;;;;5017166;28;20056;-64
2022/03/18 14:07:11;;;;;;;29.50;10.80;;;;;;;;;;5017267;28;20034;-66
2022/03/18 14:09:37;;;;;;;41.53;11.80;;;;;;;;;;5019837;28;20605;-66
2022/03/18 14:12:10;;;;;;;32.10;10.48;;;;;;;;;;5012024;28;20033;-65
2022/03/18 14:14:37;;;;;;;30.67;9.80;;;;;;;;;;5011796;28;20041;-65
2022/03/18 14:17:19;;;;;;;31.40;9.70;;;;;;;;;;5023631;28;20038;-63
2022/03/18 14:19:56;;;;;;;27.48;9.57;;;;;;;;;;5022962;28;20072;-65
2022/03/18 14:22:39;;;;;;;26.35;11.05;;;;;;;;;;5021605;28;20061;-65
2022/03/18 14:25:09;;;;;;;28.98;10.32;;;;;;;;;;5022250;28;20084;-63
2022/03/18 14:27:44;;;;;;;34.10;9.98;;;;;;;;;;5025336;28;20021;-60
2022/03/18 14:30:13;;;;;;;34.40;10.52;;;;;;;;;;5016250;28;20037;-66
2022/03/18 14:32:43;;;;;;;29.45;10.18;;;;;;;;;;5016457;28;20048;-65
2022/03/18 14:35:09;;;;;;;27.05;10.48;;;;;;;;;;5022352;28;20054;-65
2022/03/18 14:37:35;;;;;;;24.35;9.68;;;;;;;;;;5031545;28;20033;-64
2022/03/18 14:40:03;;;;;;;24.98;10.40;;;;;;;;;;5024258;28;20029;-65
2022/03/18 14:42:29;;;;;;;30.88;10.75;;;;;;;;;;5022606;28;20053;-65
2022/03/18 14:44:58;;;;;;;35.10;11.23;;;;;;;;;;5013282;28;20037;-63
2022/03/18 14:47:26;;;;;;;26.77;10.55;;;;;;;;;;5018331;28;20040;-65
2022/03/18 14:49:53;;;;;;;33.35;10.95;;;;;;;;;;5027147;28;21013;-65
2022/03/18 14:52:19;;;;;;;23.75;10.18;;;;;;;;;;5016872;28;20040;-65
2022/03/18 14:57:33;;;;;;;25.38;11.23;;;;;;;;;;5020813;28;20029;-63
2022/03/18 15:00:00;;;;;;;24.08;11.38;;;;;;;;;;5019037;28;20328;-65
2022/03/18 15:02:33;;;;;;;30.90;12.95;;;;;;;;;;5015969;28;20057;-65
2022/03/18 15:04:59;;;;;;;33.83;11.90;;;;;;;;;;5023333;28;20041;-65
2022/03/18 15:07:25;;;;;;;25.45;12.05;;;;;;;;;;5017596;28;20451;-65
2022/03/18 15:09:52;;;;;;;24.45;12.32;;;;;;;;;;5015248;28;20192;-63
2022/03/18 15:12:19;;;;;;;28.85;12.90;;;;;;;;;;5017118;28;20732;-65
2022/03/18 15:14:45;;;;;;;29.25;12.15;;;;;;;;;;5016606;28;20487;-63